Time;durP1;ratioP1;P1;durP2;ratioP2;P2;SDS_P1;SDS_P2;PMS_P1;PMS_P2;Temp;Humidity;BMP_temperature;BMP_pressure;BME280_temperature;BME280_humidity;BME280_pressure;Samples;Min_cycle;Max_cycle;Signal;HPM_P1;HPM_P2
2022/11/04 00:01:56;;;;;;;12.02;7.07;;;12.30;99.90;;;;;;5147963;27;20245;-80
2022/11/04 00:04:25;;;;;;;9.93;7.45;;;12.30;99.90;;;;;;5148168;27;20566;-77
2022/11/04 00:06:54;;;;;;;10.05;7.30;;;12.30;99.90;;;;;;5138214;27;20540;-80
2022/11/04 00:09:23;;;;;;;12.35;8.38;;;12.20;99.90;;;;;;5148397;27;20235;-80
2022/11/04 00:14:35;;;;;;;9.45;7.28;;;12.20;99.90;;;;;;5127487;27;20217;-80
2022/11/04 00:17:21;;;;;;;11.02;8.40;;;12.20;99.90;;;;;;5130316;27;20686;-76
2022/11/04 00:33:24;;;;;;;10.73;7.72;;;12.20;99.90;;;;;;5148783;27;20701;-80
2022/11/04 00:33:43;;;;;;;8.10;7.30;;;12.20;99.90;;;;;;5148418;27;20229;-80
2022/11/04 00:36:10;;;;;;;9.47;7.43;;;12.20;99.90;;;;;;5132602;27;20301;-76
2022/11/04 00:38:47;;;;;;;15.65;8.63;;;12.30;99.90;;;;;;5138517;27;20459;-81
2022/11/04 00:41:27;;;;;;;9.65;8.43;;;12.30;99.90;;;;;;5142882;27;20217;-81
2022/11/04 00:43:55;;;;;;;8.45;7.53;;;12.30;99.90;;;;;;5125275;27;20270;-81
2022/11/04 00:46:23;;;;;;;10.18;8.13;;;12.30;99.90;;;;;;5142594;27;20241;-81
2022/11/04 00:48:50;;;;;;;10.52;8.02;;;12.30;99.90;;;;;;5141721;27;20250;-80
2022/11/04 00:51:21;;;;;;;9.40;7.35;;;12.20;99.90;;;;;;5137584;27;20650;-81
2022/11/04 00:53:49;;;;;;;9.20;7.47;;;12.20;99.90;;;;;;5134504;27;20316;-77
2022/11/04 00:56:16;;;;;;;10.10;9.15;;;12.20;99.90;;;;;;5154096;27;20316;-76
2022/11/04 00:58:46;;;;;;;9.30;8.30;;;12.10;99.90;;;;;;5154736;27;20224;-80
2022/11/04 01:01:16;;;;;;;9.35;8.13;;;12.10;99.90;;;;;;5156135;27;20244;-80
2022/11/04 01:03:45;;;;;;;12.73;7.95;;;12.20;99.90;;;;;;5154883;27;20265;-80
2022/11/04 01:06:12;;;;;;;9.68;8.23;;;12.10;99.90;;;;;;5154652;27;20256;-80
2022/11/04 01:08:40;;;;;;;10.02;8.45;;;12.10;99.90;;;;;;5155310;27;20237;-80
2022/11/04 01:11:09;;;;;;;14.77;8.70;;;12.10;99.90;;;;;;5153933;27;20228;-79
2022/11/04 01:13:38;;;;;;;12.65;7.80;;;12.00;99.90;;;;;;5153944;27;20221;-80
2022/11/04 01:16:07;;;;;;;16.00;8.00;;;12.00;99.90;;;;;;5152864;27;20229;-79
2022/11/04 01:18:35;;;;;;;9.23;7.40;;;12.00;99.90;;;;;;5153817;27;20217;-77
2022/11/04 01:21:04;;;;;;;14.57;8.70;;;12.00;99.90;;;;;;5153399;27;20293;-77
2022/11/04 01:23:34;;;;;;;9.45;8.43;;;11.90;99.90;;;;;;5153500;27;20311;-77
2022/11/04 01:26:01;;;;;;;9.93;8.93;;;11.90;99.90;;;;;;5152152;27;20682;-77
2022/11/04 01:28:30;;;;;;;9.20;8.15;;;11.80;99.90;;;;;;5156240;27;20244;-77
2022/11/04 01:30:56;;;;;;;11.07;8.65;;;11.80;99.90;;;;;;5157880;27;20321;-77
2022/11/04 01:33:24;;;;;;;12.65;8.98;;;11.70;99.90;;;;;;5157531;27;20295;-77
2022/11/04 01:35:52;;;;;;;12.10;9.32;;;11.70;99.90;;;;;;5158058;27;20217;-77
2022/11/04 01:38:21;;;;;;;11.82;7.95;;;11.70;99.90;;;;;;5157140;27;20235;-76
2022/11/04 01:40:48;;;;;;;11.32;8.82;;;11.60;99.90;;;;;;5153387;27;20296;-77
2022/11/04 01:43:16;;;;;;;12.73;8.57;;;11.60;99.90;;;;;;5157034;27;20300;-78
2022/11/04 01:45:48;;;;;;;10.55;8.40;;;11.60;99.90;;;;;;5156681;27;20298;-77
2022/11/04 01:48:21;;;;;;;10.60;8.45;;;11.70;99.90;;;;;;5156555;27;20220;-77
2022/11/04 01:50:50;;;;;;;11.30;8.05;;;11.70;99.90;;;;;;5155541;27;20220;-77
2022/11/04 01:53:22;;;;;;;12.00;8.48;;;11.70;99.90;;;;;;5155624;27;20234;-77
2022/11/04 01:55:53;;;;;;;12.02;8.80;;;11.80;99.90;;;;;;5168364;27;20249;-77
2022/11/04 01:58:26;;;;;;;8.13;7.35;;;11.80;99.90;;;;;;5176622;27;20247;-77
2022/11/04 02:00:54;;;;;;;8.70;7.68;;;11.80;99.90;;;;;;5178063;27;20242;-81
2022/11/04 02:03:26;;;;;;;15.65;8.32;;;11.80;99.90;;;;;;5177990;27;20292;-81
2022/11/04 02:05:54;;;;;;;10.32;8.80;;;11.80;99.90;;;;;;5178535;27;20248;-81
2022/11/04 02:08:22;;;;;;;9.20;8.05;;;11.90;99.90;;;;;;5177965;27;20308;-81
2022/11/04 02:10:54;;;;;;;11.02;9.10;;;11.90;99.90;;;;;;5178477;27;20216;-81
2022/11/04 02:13:20;;;;;;;11.27;8.38;;;11.80;99.90;;;;;;5177659;27;20220;-77
2022/11/04 02:15:57;;;;;;;11.43;8.70;;;11.80;99.90;;;;;;5177725;27;20681;-77
2022/11/04 02:18:40;;;;;;;9.82;8.50;;;11.80;99.90;;;;;;5177240;27;20593;-81
2022/11/04 02:21:31;;;;;;;8.98;8.00;;;11.80;99.90;;;;;;5177658;27;20629;-81
2022/11/04 02:24:40;;;;;;;13.30;9.00;;;11.80;99.90;;;;;;5178548;27;20696;-77
2022/11/04 02:27:30;;;;;;;14.45;9.88;;;11.70;99.90;;;;;;5134172;27;20248;-81
2022/11/04 02:30:11;;;;;;;10.52;8.25;;;11.70;99.90;;;;;;5176388;27;20303;-81
2022/11/04 02:33:11;;;;;;;11.32;8.60;;;11.70;99.90;;;;;;5166814;27;20224;-81
2022/11/04 02:35:46;;;;;;;14.18;9.48;;;11.70;99.90;;;;;;5178089;27;20212;-80
2022/11/04 02:38:23;;;;;;;13.48;8.85;;;11.80;99.90;;;;;;5177787;27;20221;-81
2022/11/04 02:41:00;;;;;;;8.93;7.63;;;11.80;99.90;;;;;;5177098;27;20645;-77
2022/11/04 02:43:34;;;;;;;11.80;8.23;;;11.80;99.90;;;;;;5177155;27;20224;-77
2022/11/04 02:46:08;;;;;;;15.63;9.32;;;11.80;99.90;;;;;;5177456;27;20693;-77
2022/11/04 02:48:41;;;;;;;9.68;7.72;;;11.90;99.90;;;;;;5177677;27;20221;-76
2022/11/04 02:51:13;;;;;;;14.38;8.90;;;11.90;99.90;;;;;;5176995;27;20213;-81
2022/11/04 02:53:43;;;;;;;10.10;8.50;;;11.80;99.90;;;;;;5177753;27;20285;-81
2022/11/04 02:56:14;;;;;;;14.73;8.75;;;11.90;99.90;;;;;;5177072;27;20209;-81
2022/11/04 02:58:49;;;;;;;11.70;8.85;;;11.80;99.90;;;;;;5177587;27;20324;-81
2022/11/04 03:01:19;;;;;;;12.60;8.85;;;11.80;99.90;;;;;;5176451;27;20295;-81
2022/11/04 03:03:49;;;;;;;13.60;9.10;;;11.80;99.90;;;;;;5177274;27;20301;-81
2022/11/04 03:06:20;;;;;;;13.30;8.80;;;11.70;99.90;;;;;;5177114;27;20315;-80
2022/11/04 03:08:51;;;;;;;11.05;8.90;;;11.70;99.90;;;;;;5176972;27;20700;-80
2022/11/04 03:11:21;;;;;;;11.32;8.50;;;11.70;99.90;;;;;;5177150;27;20288;-76
2022/11/04 03:13:53;;;;;;;10.68;9.13;;;11.70;99.90;;;;;;5177385;27;20251;-80
2022/11/04 03:16:28;;;;;;;12.30;9.38;;;11.70;99.90;;;;;;5177071;27;20233;-81
2022/11/04 03:19:02;;;;;;;9.98;8.95;;;11.70;99.90;;;;;;5176906;27;20212;-76
2022/11/04 03:21:33;;;;;;;11.30;9.05;;;11.70;99.90;;;;;;5174270;27;20231;-80
2022/11/04 03:24:06;;;;;;;10.63;8.82;;;11.80;99.90;;;;;;5175981;27;20265;-80
2022/11/04 03:26:41;;;;;;;11.90;8.75;;;11.70;99.90;;;;;;5176499;27;20255;-80
2022/11/04 03:29:21;;;;;;;11.30;9.48;;;11.80;99.90;;;;;;5176978;27;20610;-80
2022/11/04 03:31:55;;;;;;;15.10;9.20;;;11.80;99.90;;;;;;5177778;27;20599;-76
2022/11/04 03:38:40;;;;;;;9.45;8.48;;;11.70;99.90;;;;;;5074544;27;20661;-80
2022/11/04 03:41:12;;;;;;;14.75;10.13;;;11.70;99.90;;;;;;5148192;27;20277;-80
2022/11/04 03:43:41;;;;;;;10.77;9.02;;;11.70;99.90;;;;;;5176738;27;20251;-80
2022/11/04 03:46:09;;;;;;;10.18;9.15;;;11.70;99.90;;;;;;5176007;27;20256;-76
2022/11/04 03:48:38;;;;;;;10.90;8.27;;;11.70;99.90;;;;;;5176568;27;20270;-80
2022/11/04 03:51:05;;;;;;;12.65;8.65;;;11.80;99.90;;;;;;5176089;27;20739;-80
2022/11/04 03:53:32;;;;;;;10.32;8.35;;;11.80;99.90;;;;;;5176471;27;20225;-81
2022/11/04 03:56:17;;;;;;;12.05;9.05;;;11.80;99.90;;;;;;5176472;27;20722;-75
2022/11/04 03:58:54;;;;;;;10.43;8.70;;;11.80;99.90;;;;;;5176118;27;20240;-80
2022/11/04 04:01:30;;;;;;;11.63;9.18;;;11.80;99.90;;;;;;5176506;27;20246;-76
2022/11/04 04:04:03;;;;;;;10.88;8.90;;;11.80;99.90;;;;;;5174641;27;20741;-77
2022/11/04 04:06:35;;;;;;;10.75;8.73;;;11.80;99.90;;;;;;5176507;27;20255;-80
2022/11/04 04:09:13;;;;;;;10.60;8.85;;;11.80;99.90;;;;;;5175472;27;20650;-76
2022/11/04 04:11:45;;;;;;;13.20;9.80;;;11.90;99.90;;;;;;5175871;27;20217;-76
2022/11/04 04:14:37;;;;;;;13.15;8.60;;;11.90;99.90;;;;;;5174863;27;20216;-80
2022/11/04 04:17:07;;;;;;;9.05;8.15;;;11.90;99.90;;;;;;5174955;27;20720;-76
2022/11/04 04:19:37;;;;;;;19.15;9.75;;;11.90;99.90;;;;;;5175526;27;20303;-76
2022/11/04 04:22:09;;;;;;;11.20;8.30;;;11.90;99.90;;;;;;5175240;27;20292;-80
2022/11/04 04:27:33;;;;;;;9.00;8.10;;;12.00;99.90;;;;;;5176238;27;20235;-76
2022/11/04 04:30:03;;;;;;;10.68;8.80;;;12.00;99.90;;;;;;5175531;27;20291;-76
2022/11/04 04:32:35;;;;;;;11.45;9.57;;;12.00;99.90;;;;;;5175716;27;20316;-79
2022/11/04 04:37:49;;;;;;;13.13;9.27;;;12.00;99.90;;;;;;5175057;27;20662;-80
2022/11/04 04:45:51;;;;;;;9.80;8.70;;;12.10;99.90;;;;;;5174937;27;20315;-76
2022/11/04 04:48:19;;;;;;;10.55;7.78;;;12.10;99.90;;;;;;5175731;27;20224;-80
2022/11/04 04:50:51;;;;;;;14.80;9.43;;;12.10;99.90;;;;;;5175143;27;20276;-76
2022/11/04 04:53:18;;;;;;;13.23;9.73;;;12.10;99.90;;;;;;5175339;27;20285;-76
2022/11/04 04:55:47;;;;;;;9.80;7.65;;;12.10;99.90;;;;;;5173842;27;20237;-80
2022/11/04 04:58:14;;;;;;;9.13;8.23;;;12.20;99.90;;;;;;5174951;27;20216;-80
2022/11/04 05:00:41;;;;;;;13.32;9.48;;;12.20;99.90;;;;;;5174880;27;20609;-79
2022/11/04 05:03:09;;;;;;;14.40;10.10;;;12.20;99.90;;;;;;5174871;27;20220;-80
2022/11/04 05:05:35;;;;;;;13.15;9.75;;;12.20;99.90;;;;;;5175345;27;20220;-76
2022/11/04 05:08:07;;;;;;;13.10;8.23;;;12.20;99.90;;;;;;5174202;27;20228;-76
2022/11/04 05:10:35;;;;;;;10.60;9.50;;;12.20;99.90;;;;;;5175205;27;20255;-76
2022/11/04 05:15:56;;;;;;;13.10;9.82;;;12.30;99.90;;;;;;5173900;27;20310;-80
2022/11/04 05:18:23;;;;;;;14.27;8.85;;;12.30;99.90;;;;;;5175340;27;20219;-80
2022/11/04 05:20:50;;;;;;;11.63;8.35;;;12.30;99.90;;;;;;5174593;27;20220;-80
2022/11/04 05:23:18;;;;;;;13.75;9.23;;;12.30;99.90;;;;;;5175251;27;21084;-75
2022/11/04 05:25:45;;;;;;;8.88;7.90;;;12.30;99.90;;;;;;5174553;27;20246;-76
2022/11/04 05:28:13;;;;;;;11.20;8.45;;;12.40;99.90;;;;;;5174863;27;20268;-76
2022/11/04 05:30:40;;;;;;;9.68;8.05;;;12.40;99.90;;;;;;5175304;27;20699;-76
2022/11/04 05:33:07;;;;;;;8.32;7.53;;;12.40;99.90;;;;;;5174708;27;20218;-80
2022/11/04 05:35:34;;;;;;;10.07;8.68;;;12.40;99.90;;;;;;5175032;27;20216;-80
2022/11/04 05:38:02;;;;;;;13.32;9.25;;;12.50;99.90;;;;;;5174777;27;20216;-80
2022/11/04 05:40:30;;;;;;;11.43;10.23;;;12.50;99.90;;;;;;5174976;27;20303;-80
2022/11/04 05:42:59;;;;;;;17.63;11.55;;;12.50;99.90;;;;;;5165602;27;20220;-79
2022/11/04 05:45:25;;;;;;;10.48;9.38;;;12.50;99.90;;;;;;5175344;27;20212;-80
2022/11/04 05:47:58;;;;;;;13.50;9.88;;;12.50;99.90;;;;;;5174472;27;20312;-79
2022/11/04 05:50:25;;;;;;;13.07;9.18;;;12.50;99.90;;;;;;5175274;27;20228;-76
2022/11/04 05:52:52;;;;;;;11.10;9.95;;;12.60;99.90;;;;;;5172711;27;20542;-76
2022/11/04 05:55:19;;;;;;;9.88;8.25;;;12.60;99.90;;;;;;5158795;27;20705;-80
2022/11/04 05:57:48;;;;;;;11.10;9.45;;;12.60;99.90;;;;;;5154615;27;20322;-80
2022/11/04 06:00:15;;;;;;;12.27;9.63;;;12.60;99.90;;;;;;5153264;27;20240;-76
2022/11/04 06:02:42;;;;;;;12.15;9.75;;;12.60;99.90;;;;;;5154136;27;20221;-80
2022/11/04 06:05:10;;;;;;;11.43;9.25;;;12.60;99.90;;;;;;5153751;27;20305;-76
2022/11/04 06:07:37;;;;;;;12.95;8.98;;;12.60;99.90;;;;;;5154056;27;20221;-76
2022/11/04 06:10:07;;;;;;;10.15;8.07;;;12.60;99.90;;;;;;5153646;27;20235;-80
2022/11/04 06:12:34;;;;;;;10.45;9.40;;;12.60;99.90;;;;;;5154093;27;20241;-80
2022/11/04 06:15:02;;;;;;;11.27;8.35;;;12.60;99.90;;;;;;5155591;27;20619;-76
2022/11/04 06:17:29;;;;;;;9.60;8.70;;;12.60;99.90;;;;;;5157670;27;20297;-76
2022/11/04 06:19:56;;;;;;;10.35;8.35;;;12.60;99.90;;;;;;5157847;27;20237;-80
2022/11/04 06:22:32;;;;;;;9.50;8.50;;;12.70;99.90;;;;;;5158077;27;20221;-79
2022/11/04 06:24:58;;;;;;;16.10;12.13;;;12.70;99.90;;;;;;5157711;27;20669;-80
2022/11/04 06:27:25;;;;;;;15.35;11.85;;;12.70;99.90;;;;;;5158181;27;20233;-81
2022/11/04 06:29:52;;;;;;;14.07;11.38;;;12.70;99.90;;;;;;5157800;27;20228;-81
2022/11/04 06:32:20;;;;;;;10.85;9.75;;;12.70;99.90;;;;;;5157807;27;20278;-76
2022/11/04 06:34:47;;;;;;;12.93;9.85;;;12.70;99.90;;;;;;5157469;27;20228;-77
2022/11/04 06:37:14;;;;;;;12.88;10.27;;;12.70;99.90;;;;;;5156874;27;20240;-78
2022/11/04 06:39:41;;;;;;;11.18;9.27;;;12.70;99.90;;;;;;5157127;27;20245;-77
2022/11/04 06:42:08;;;;;;;14.98;11.57;;;12.70;99.90;;;;;;5148517;27;20589;-77
2022/11/04 06:44:35;;;;;;;10.48;9.40;;;12.70;99.90;;;;;;5157316;27;20308;-81
2022/11/04 06:47:02;;;;;;;13.82;11.07;;;12.80;99.90;;;;;;5156855;27;20218;-81
2022/11/04 06:49:31;;;;;;;15.65;10.55;;;12.80;99.90;;;;;;5157228;27;20304;-81
2022/11/04 06:51:58;;;;;;;12.80;11.10;;;12.70;99.90;;;;;;5157240;27;20241;-81
2022/11/04 06:54:25;;;;;;;11.80;9.75;;;12.70;99.90;;;;;;5164913;27;20585;-81
2022/11/04 06:56:51;;;;;;;11.52;10.32;;;12.70;99.90;;;;;;5177860;27;20225;-81
2022/11/04 06:59:20;;;;;;;11.40;10.07;;;12.70;99.90;;;;;;5176325;27;20255;-81
2022/11/04 07:01:49;;;;;;;10.60;9.48;;;12.70;99.90;;;;;;5177903;27;20221;-81
2022/11/04 07:04:16;;;;;;;13.55;11.30;;;12.70;99.90;;;;;;5177257;27;20217;-80
2022/11/04 07:06:44;;;;;;;12.77;10.68;;;12.80;99.90;;;;;;5177747;27;20244;-76
2022/11/04 07:09:12;;;;;;;11.85;10.65;;;12.80;99.90;;;;;;5177348;27;20225;-76
2022/11/04 07:11:50;;;;;;;12.38;10.57;;;12.80;99.90;;;;;;5165416;27;20304;-77
2022/11/04 07:14:17;;;;;;;13.38;10.27;;;12.80;99.90;;;;;;5176994;27;20573;-81
2022/11/04 07:16:44;;;;;;;12.50;10.80;;;12.80;99.90;;;;;;5178001;27;20219;-79
2022/11/04 07:19:11;;;;;;;12.88;10.43;;;12.80;99.90;;;;;;5177047;27;20220;-77
2022/11/04 07:21:38;;;;;;;13.23;11.45;;;12.80;99.90;;;;;;5177338;27;20571;-76
2022/11/04 07:24:07;;;;;;;13.80;11.85;;;12.80;99.90;;;;;;5177134;27;20224;-76
2022/11/04 07:26:34;;;;;;;15.32;11.10;;;12.80;99.90;;;;;;5176098;27;20216;-76
2022/11/04 07:29:01;;;;;;;14.05;10.50;;;12.90;99.90;;;;;;5176860;27;20601;-80
2022/11/04 07:31:28;;;;;;;13.35;12.15;;;12.90;99.90;;;;;;5176628;27;20661;-76
2022/11/04 07:33:55;;;;;;;17.92;12.68;;;12.90;99.90;;;;;;5177005;27;20306;-76
2022/11/04 07:36:23;;;;;;;16.60;11.75;;;12.90;99.90;;;;;;5167072;27;20304;-76
2022/11/04 07:38:50;;;;;;;13.50;11.52;;;12.90;99.90;;;;;;5177131;27;20278;-76
2022/11/04 07:41:21;;;;;;;14.70;12.35;;;13.00;99.90;;;;;;5175892;27;20273;-76
2022/11/04 07:43:53;;;;;;;19.13;14.20;;;13.00;99.90;;;;;;5176672;27;20664;-76
2022/11/04 07:46:23;;;;;;;16.73;14.07;;;13.00;99.90;;;;;;5176264;27;20518;-76
2022/11/04 07:48:51;;;;;;;13.77;12.43;;;13.00;99.90;;;;;;5166804;27;20590;-81
2022/11/04 07:51:20;;;;;;;16.48;14.75;;;13.00;99.90;;;;;;5175817;27;20247;-80
2022/11/04 07:53:47;;;;;;;21.77;15.88;;;13.00;99.90;;;;;;5176521;27;20307;-80
2022/11/04 07:56:15;;;;;;;14.20;12.75;;;13.00;99.90;;;;;;5179378;27;20249;-80
2022/11/04 07:58:43;;;;;;;14.32;12.93;;;13.00;99.90;;;;;;5176946;27;20217;-78
2022/11/04 08:01:15;;;;;;;14.13;12.63;;;13.10;99.90;;;;;;5177128;27;20626;-77
2022/11/04 08:03:44;;;;;;;14.15;12.75;;;13.10;99.90;;;;;;5176389;27;20228;-77
2022/11/04 08:06:13;;;;;;;15.60;14.00;;;13.10;99.90;;;;;;5176399;27;20674;-77
2022/11/04 08:08:41;;;;;;;18.52;14.43;;;13.20;99.90;;;;;;5176785;27;20504;-77
2022/11/04 08:13:59;;;;;;;13.65;12.30;;;13.30;99.90;;;;;;5090675;22;20804;-80
2022/11/04 08:16:26;;;;;;;12.80;11.50;;;13.30;99.90;;;;;;5073155;28;20259;-81
2022/11/04 08:18:53;;;;;;;13.98;11.55;;;13.30;99.90;;;;;;5073911;28;20269;-81
2022/11/04 08:21:23;;;;;;;14.02;11.50;;;13.40;99.90;;;;;;5072725;28;20219;-81
2022/11/04 08:23:51;;;;;;;17.27;13.40;;;13.40;99.90;;;;;;5078816;28;20228;-81
2022/11/04 08:26:20;;;;;;;13.80;12.30;;;13.40;99.90;;;;;;5072995;28;20654;-77
2022/11/04 08:28:50;;;;;;;16.60;11.20;;;13.40;99.90;;;;;;5073142;28;20234;-77
2022/11/04 08:31:24;;;;;;;12.23;11.07;;;13.50;99.90;;;;;;5072779;28;20526;-81
2022/11/04 08:33:51;;;;;;;12.20;10.90;;;13.50;99.90;;;;;;5074001;28;20539;-82
2022/11/04 08:36:21;;;;;;;11.32;10.20;;;13.50;99.90;;;;;;5072802;28;20489;-82
2022/11/04 08:38:53;;;;;;;11.20;10.10;;;13.50;99.90;;;;;;5073361;28;20729;-77
2022/11/04 08:41:23;;;;;;;12.50;10.53;;;13.50;99.90;;;;;;5072639;28;20307;-77
2022/11/04 08:43:51;;;;;;;14.82;11.20;;;13.50;99.90;;;;;;5073574;28;20962;-77
2022/11/04 08:46:19;;;;;;;11.53;10.40;;;13.60;99.90;;;;;;5073071;28;20252;-81
2022/11/04 08:48:48;;;;;;;13.10;11.67;;;13.60;99.90;;;;;;5072493;28;20557;-81
2022/11/04 08:51:18;;;;;;;14.20;11.70;;;13.60;99.90;;;;;;5064194;28;20983;-81
2022/11/04 08:53:45;;;;;;;12.50;11.20;;;13.60;99.90;;;;;;5077991;28;20487;-81
2022/11/04 08:56:43;;;;;;;11.85;10.75;;;13.60;99.90;;;;;;5077743;28;20497;-81
2022/11/04 08:59:13;;;;;;;10.60;9.60;;;13.70;99.90;;;;;;5077007;28;20216;-80
2022/11/04 09:01:43;;;;;;;12.17;10.57;;;13.70;99.90;;;;;;5079597;28;20462;-80
2022/11/04 09:04:11;;;;;;;12.18;10.98;;;13.70;99.90;;;;;;5081198;28;20462;-80
2022/11/04 09:06:42;;;;;;;10.98;9.88;;;13.70;99.90;;;;;;5073962;28;20678;-81
2022/11/04 09:09:14;;;;;;;12.73;11.43;;;13.70;99.90;;;;;;5073554;28;20289;-81
2022/11/04 09:11:48;;;;;;;9.10;8.03;;;13.80;99.90;;;;;;5074609;28;20676;-82
2022/11/04 09:14:16;;;;;;;12.27;10.50;;;13.80;99.90;;;;;;5093291;28;20469;-82
2022/11/04 09:16:45;;;;;;;12.33;8.73;;;13.80;99.90;;;;;;5094493;28;20491;-80
2022/11/04 09:19:11;;;;;;;11.80;8.83;;;13.80;99.90;;;;;;5094320;28;20756;-82
2022/11/04 09:21:39;;;;;;;10.40;9.37;;;13.80;99.90;;;;;;5095423;28;20987;-81
2022/11/04 09:24:11;;;;;;;11.45;8.82;;;13.80;99.90;;;;;;5096283;28;20473;-81
2022/11/04 09:26:38;;;;;;;10.10;8.80;;;13.90;99.90;;;;;;5097871;28;20247;-81
2022/11/04 09:29:08;;;;;;;10.77;9.73;;;13.90;99.90;;;;;;5097332;28;20557;-81
2022/11/04 09:31:35;;;;;;;10.90;7.70;;;13.90;99.90;;;;;;5092667;28;20465;-82
2022/11/04 09:34:04;;;;;;;11.67;9.57;;;13.90;99.90;;;;;;5092840;28;20830;-82
2022/11/04 09:36:30;;;;;;;12.47;9.60;;;13.90;99.90;;;;;;5093001;28;20503;-81
2022/11/04 09:38:57;;;;;;;9.77;8.73;;;13.90;99.90;;;;;;5092322;28;20904;-81
2022/11/04 09:41:53;;;;;;;9.60;8.03;;;13.90;99.90;;;;;;5092110;28;20544;-82
2022/11/04 09:44:26;;;;;;;14.60;9.23;;;13.90;99.90;;;;;;5090463;28;20503;-81
2022/11/04 09:46:58;;;;;;;11.90;9.63;;;13.90;99.90;;;;;;5092725;28;20461;-81
2022/11/04 09:49:28;;;;;;;10.75;9.65;;;13.90;99.90;;;;;;5095038;28;20502;-82
2022/11/04 09:51:57;;;;;;;10.60;8.80;;;13.90;99.90;;;;;;5096695;28;20558;-81
2022/11/04 09:54:27;;;;;;;9.13;8.23;;;13.90;99.90;;;;;;5095885;28;20970;-81
2022/11/04 09:56:58;;;;;;;10.40;9.33;;;14.00;99.90;;;;;;5096712;28;20253;-80
2022/11/04 09:59:27;;;;;;;9.43;8.20;;;14.00;99.90;;;;;;5096283;28;20469;-80
2022/11/04 10:02:14;;;;;;;10.13;8.13;;;14.00;99.90;;;;;;5096258;28;20489;-80
2022/11/04 10:04:52;;;;;;;11.90;10.70;;;14.00;99.90;;;;;;5096763;28;20564;-80
2022/11/04 10:07:32;;;;;;;11.70;10.53;;;14.00;99.90;;;;;;5095700;28;20533;-80
2022/11/04 10:10:09;;;;;;;11.77;10.67;;;14.00;99.90;;;;;;5095718;28;20469;-80
2022/11/04 10:12:55;;;;;;;10.07;8.73;;;14.00;99.90;;;;;;5096248;28;20485;-81
2022/11/04 10:15:47;;;;;;;9.50;8.60;;;14.00;99.90;;;;;;5086849;28;20464;-81
2022/11/04 10:18:24;;;;;;;8.40;7.10;;;14.00;99.90;;;;;;5095618;28;20462;-75
2022/11/04 10:21:01;;;;;;;8.67;7.87;;;14.10;99.90;;;;;;5095951;28;20464;-76
2022/11/04 10:23:33;;;;;;;7.77;6.97;;;14.00;99.90;;;;;;5095739;28;20605;-76
2022/11/04 10:26:09;;;;;;;10.35;9.30;;;14.00;99.90;;;;;;5096076;28;20557;-80
2022/11/04 10:28:44;;;;;;;8.40;7.70;;;14.00;99.90;;;;;;5096632;28;20253;-80
2022/11/04 10:31:15;;;;;;;8.47;7.30;;;14.00;99.90;;;;;;5097014;28;20507;-81
2022/11/04 10:33:47;;;;;;;9.90;8.40;;;14.00;99.90;;;;;;5096504;28;20457;-81
2022/11/04 10:36:17;;;;;;;9.00;8.20;;;14.00;99.90;;;;;;5097528;28;20504;-80
2022/11/04 10:38:46;;;;;;;13.07;7.90;;;14.10;99.90;;;;;;5098598;28;20457;-76
2022/11/04 10:41:22;;;;;;;8.18;7.38;;;14.10;99.90;;;;;;5096209;28;20548;-76
2022/11/04 10:43:51;;;;;;;8.02;7.32;;;14.10;99.90;;;;;;5095919;28;20219;-76
2022/11/04 10:46:41;;;;;;;11.00;8.67;;;14.10;99.90;;;;;;5069379;28;20601;-75
2022/11/04 10:49:29;;;;;;;9.07;8.10;;;14.00;99.90;;;;;;5096918;28;20500;-76
2022/11/04 10:51:58;;;;;;;9.70;8.33;;;14.00;99.90;;;;;;5095507;28;20568;-76
2022/11/04 10:54:29;;;;;;;8.80;7.72;;;14.00;99.90;;;;;;5095868;28;20781;-76
2022/11/04 10:56:57;;;;;;;7.80;6.90;;;14.00;99.90;;;;;;5094964;28;20272;-75
2022/11/04 10:59:27;;;;;;;9.73;8.23;;;14.00;99.90;;;;;;5095393;28;20523;-75
2022/11/04 11:01:56;;;;;;;9.77;8.88;;;14.00;99.90;;;;;;5095317;28;20242;-76
2022/11/04 11:04:27;;;;;;;7.60;6.75;;;14.00;99.90;;;;;;5095448;28;20302;-76
2022/11/04 11:06:55;;;;;;;10.03;8.93;;;14.00;99.90;;;;;;5094550;28;20689;-77
2022/11/04 11:09:28;;;;;;;9.70;8.63;;;14.00;99.90;;;;;;5095382;28;20469;-76
2022/11/04 11:11:58;;;;;;;8.83;7.67;;;14.00;99.90;;;;;;5087035;28;20850;-77
2022/11/04 11:14:34;;;;;;;7.90;7.20;;;14.00;99.90;;;;;;5096163;28;20529;-76
2022/11/04 11:17:38;;;;;;;8.50;7.70;;;14.00;99.90;;;;;;5095417;28;20677;-76
2022/11/04 11:20:20;;;;;;;9.40;8.50;;;14.00;99.90;;;;;;5008975;28;20472;-77
2022/11/04 11:22:50;;;;;;;8.47;7.63;;;14.00;99.90;;;;;;5017915;28;20496;-76
2022/11/04 11:25:27;;;;;;;8.90;8.10;;;14.00;99.90;;;;;;5051872;28;20483;-80
2022/11/04 11:27:56;;;;;;;7.97;7.27;;;14.00;99.90;;;;;;5083349;28;20499;-80
2022/11/04 11:30:30;;;;;;;8.57;7.40;;;14.00;99.90;;;;;;5098065;28;20465;-82
2022/11/04 11:33:03;;;;;;;7.88;7.07;;;14.00;99.90;;;;;;5098613;28;20496;-80
2022/11/04 11:35:40;;;;;;;8.32;7.63;;;14.00;99.90;;;;;;5100426;28;20223;-80
2022/11/04 11:38:17;;;;;;;8.27;7.30;;;14.00;99.90;;;;;;5097703;28;20279;-77
2022/11/04 11:40:47;;;;;;;7.53;6.70;;;14.00;99.90;;;;;;5095425;28;20461;-77
2022/11/04 11:43:23;;;;;;;8.32;7.43;;;14.00;99.90;;;;;;5095249;28;20470;-77
2022/11/04 11:45:53;;;;;;;8.13;7.43;;;14.00;99.90;;;;;;5097825;28;20688;-77
2022/11/04 11:48:32;;;;;;;9.13;8.43;;;14.00;99.90;;;;;;5095581;28;20484;-77
2022/11/04 11:51:00;;;;;;;9.70;8.07;;;14.00;99.90;;;;;;5097917;28;20219;-77
2022/11/04 11:53:32;;;;;;;9.40;8.50;;;14.00;99.90;;;;;;5098632;28;20888;-76
2022/11/04 11:56:14;;;;;;;8.60;7.90;;;13.90;99.90;;;;;;5097613;28;20469;-76
2022/11/04 11:58:46;;;;;;;7.47;6.77;;;13.90;99.90;;;;;;5095625;28;20544;-76
2022/11/04 12:01:19;;;;;;;9.17;8.30;;;13.90;99.90;;;;;;5097192;28;20461;-75
2022/11/04 12:03:51;;;;;;;8.63;7.83;;;13.90;99.90;;;;;;5074911;28;20510;-76
2022/11/04 12:06:30;;;;;;;8.47;7.23;;;13.90;99.90;;;;;;5092709;28;20934;-75
2022/11/04 12:09:11;;;;;;;9.20;7.43;;;13.90;99.90;;;;;;5095990;28;20499;-76
2022/11/04 12:11:52;;;;;;;9.63;8.80;;;13.90;99.90;;;;;;5095804;28;20461;-77
2022/11/04 12:14:35;;;;;;;9.40;8.60;;;13.90;99.90;;;;;;5100081;28;20227;-77
2022/11/04 12:17:10;;;;;;;10.00;9.10;;;13.90;99.90;;;;;;5099159;28;20223;-80
2022/11/04 12:20:07;;;;;;;9.80;8.33;;;13.90;99.90;;;;;;5101382;28;20253;-81
2022/11/04 12:22:41;;;;;;;9.53;8.53;;;13.90;99.90;;;;;;5097718;28;20461;-80
2022/11/04 12:25:22;;;;;;;8.93;8.13;;;13.90;99.90;;;;;;5102017;28;20465;-80
2022/11/04 12:27:58;;;;;;;9.65;8.75;;;13.90;99.90;;;;;;5101343;28;20556;-76
2022/11/04 12:30:37;;;;;;;10.07;9.27;;;13.90;99.90;;;;;;5083336;28;20206;-77
2022/11/04 12:33:21;;;;;;;11.37;10.27;;;13.90;99.90;;;;;;5094927;28;20966;-76
2022/11/04 12:35:59;;;;;;;12.07;10.90;;;13.90;99.90;;;;;;5093264;28;20461;-76
2022/11/04 12:38:45;;;;;;;10.48;9.40;;;13.90;99.90;;;;;;5093179;28;21515;-76
2022/11/04 12:41:23;;;;;;;10.63;9.63;;;13.90;99.90;;;;;;5092589;28;20696;-76
2022/11/04 12:44:00;;;;;;;11.33;8.80;;;13.90;99.90;;;;;;5092472;28;20473;-76
2022/11/04 12:46:36;;;;;;;10.10;9.20;;;13.90;99.90;;;;;;5092887;28;20464;-79
2022/11/04 12:49:29;;;;;;;10.10;9.20;;;13.80;99.90;;;;;;5093104;28;20860;-81
2022/11/04 12:52:07;;;;;;;10.33;9.10;;;13.80;99.90;;;;;;5082878;28;20219;-81
2022/11/04 12:54:55;;;;;;;10.00;9.10;;;13.80;99.90;;;;;;5092979;28;20513;-81
2022/11/04 12:57:30;;;;;;;9.97;9.07;;;13.80;99.90;;;;;;5092914;28;20500;-80
2022/11/04 13:00:09;;;;;;;9.10;8.33;;;13.80;99.90;;;;;;5093220;28;20564;-80
2022/11/04 13:02:42;;;;;;;10.83;9.60;;;13.80;99.90;;;;;;5079415;28;20486;-79
2022/11/04 13:05:26;;;;;;;10.40;9.40;;;13.80;99.90;;;;;;5070270;28;20548;-80
2022/11/04 13:08:01;;;;;;;8.57;7.77;;;13.80;99.90;;;;;;5092809;28;21345;-80
2022/11/04 13:10:37;;;;;;;9.75;8.82;;;13.80;99.90;;;;;;5092002;28;20548;-81
2022/11/04 13:13:06;;;;;;;9.43;8.27;;;13.80;99.90;;;;;;5092369;28;20322;-81
2022/11/04 13:15:44;;;;;;;9.10;8.20;;;13.80;99.90;;;;;;5092614;28;20565;-80
2022/11/04 13:18:17;;;;;;;9.57;8.63;;;13.80;99.90;;;;;;5092965;28;20242;-80
2022/11/04 13:20:53;;;;;;;9.40;8.60;;;13.80;99.90;;;;;;5092496;28;20523;-81
2022/11/04 13:23:25;;;;;;;9.07;8.00;;;13.80;99.90;;;;;;5093517;28;20967;-81
2022/11/04 13:25:54;;;;;;;10.40;9.40;;;13.80;99.90;;;;;;5096421;28;20457;-80
2022/11/04 13:28:22;;;;;;;9.20;8.30;;;13.80;99.90;;;;;;5097016;28;20967;-77
2022/11/04 13:31:02;;;;;;;10.88;8.50;;;13.80;99.90;;;;;;5096596;28;20552;-77
2022/11/04 13:33:38;;;;;;;13.63;11.97;;;13.70;99.90;;;;;;5096303;28;20287;-76
2022/11/04 13:36:19;;;;;;;9.70;8.80;;;13.70;99.90;;;;;;5096538;28;20532;-76
2022/11/04 13:38:54;;;;;;;10.50;9.47;;;13.70;99.90;;;;;;5085403;28;20215;-77